createdAt,value
2023-05-02T00:02:17.419Z,98782.87
2023-05-02T00:05:34.435Z,98780.41
2023-05-02T00:08:50.966Z,98781.70
2023-05-02T00:12:08.024Z,98777.09
2023-05-02T00:15:24.624Z,98782.86
2023-05-02T00:18:41.201Z,98777.25
2023-05-02T00:21:58.868Z,98774.78
2023-05-02T00:25:18.287Z,98772.95
2023-05-02T00:28:34.854Z,98775.42
2023-05-02T00:31:52.106Z,98774.95
2023-05-02T00:35:08.571Z,98772.47
2023-05-02T00:38:24.924Z,98778.42
2023-05-02T00:41:41.409Z,98769.50
2023-05-02T00:44:57.999Z,98767.19
2023-05-02T00:48:15.570Z,98782.38
2023-05-02T00:51:33.021Z,98781.55
2023-05-02T00:54:49.926Z,98788.17
2023-05-02T00:58:06.689Z,98802.86
2023-05-02T01:01:32.115Z,98784.37
2023-05-02T01:04:56.396Z,98796.41
2023-05-02T01:08:23.415Z,98788.97
2023-05-02T01:11:47.774Z,98789.31
2023-05-02T01:15:08.426Z,98795.58
2023-05-02T01:18:28.636Z,98795.53
2023-05-02T01:21:47.316Z,98797.71
2023-05-02T01:25:11.312Z,98794.23
2023-05-02T01:28:37.145Z,98788.47
2023-05-02T01:31:57.061Z,98783.86
2023-05-02T01:35:16.492Z,98793.25
2023-05-02T01:38:32.030Z,98777.59
2023-05-02T01:41:49.051Z,98780.39
2023-05-02T01:45:06.999Z,98784.01
2023-05-02T01:48:25.706Z,98777.09
2023-05-02T01:51:46.999Z,98778.20
2023-05-02T01:55:06.074Z,98774.10
2023-05-02T01:58:25.785Z,98774.27
2023-05-02T02:01:44.485Z,98781.19
2023-05-02T02:05:03.125Z,98784.30
2023-05-02T02:08:17.398Z,98786.30
2023-05-02T02:11:39.894Z,98789.27
2023-05-02T02:15:05.665Z,98791.58
2023-05-02T02:18:27.429Z,98802.63
2023-05-02T02:21:50.388Z,98796.38
2023-05-02T02:25:07.699Z,98789.41
2023-05-02T02:28:24.298Z,98792.83
2023-05-02T02:31:44.490Z,98798.27
2023-05-02T02:35:01.039Z,98793.47
2023-05-02T02:38:24.818Z,98797.55
2023-05-02T02:41:48.206Z,98794.78
2023-05-02T02:45:10.576Z,98800.41
2023-05-02T02:48:32.769Z,98799.09
2023-05-02T02:51:56.405Z,98800.48
2023-05-02T02:55:18.898Z,98806.55
2023-05-02T02:58:45.574Z,98800.23
2023-05-02T03:02:09.287Z,98808.14
2023-05-02T03:05:27.212Z,98808.49
2023-05-02T03:08:51.358Z,98802.14
2023-05-02T03:12:08.067Z,98807.11
2023-05-02T03:15:54.759Z,98801.84
2023-05-02T03:19:14.372Z,98807.05
2023-05-02T03:22:30.797Z,98803.95
2023-05-02T03:25:47.717Z,98816.56
2023-05-02T03:29:05.056Z,98829.42
2023-05-02T03:32:23.252Z,98821.97
2023-05-02T03:35:39.887Z,98817.84
2023-05-02T03:38:56.335Z,98824.83
2023-05-02T03:42:13.319Z,98828.00
2023-05-02T03:45:30.119Z,98825.36
2023-05-02T03:48:47.492Z,98828.98
2023-05-02T03:52:04.002Z,98819.44
2023-05-02T03:55:22.265Z,98827.87
2023-05-02T03:58:39.530Z,98826.56
2023-05-02T04:01:58.733Z,98828.39
2023-05-02T04:05:17.721Z,98829.21
2023-05-02T04:08:38.603Z,98825.08
2023-05-02T04:11:55.011Z,98824.10
2023-05-02T04:15:12.554Z,98825.94
2023-05-02T04:18:29.426Z,98827.64
2023-05-02T04:21:51.333Z,98830.96
2023-05-02T04:25:08.012Z,98826.53
2023-05-02T04:28:26.092Z,98819.80
2023-05-02T04:31:43.168Z,98825.58
2023-05-02T04:35:00.356Z,98820.16
2023-05-02T04:38:16.759Z,98824.95
2023-05-02T04:41:34.048Z,98834.72
2023-05-02T04:44:52.579Z,98825.63
2023-05-02T04:48:09.354Z,98826.29
2023-05-02T04:51:26.862Z,98827.45
2023-05-02T04:54:44.891Z,98819.17
2023-05-02T04:58:01.367Z,98819.80
2023-05-02T05:01:19.077Z,98822.61
2023-05-02T05:04:36.224Z,98822.23
2023-05-02T05:07:53.650Z,98838.17
2023-05-02T05:11:18.005Z,98842.19
2023-05-02T05:14:37.038Z,98841.36
2023-05-02T05:21:08.943Z,98837.70
2023-05-02T05:24:25.311Z,98831.40
2023-05-02T05:27:43.975Z,98826.39
2023-05-02T05:31:04.253Z,98834.44
2023-05-02T05:34:22.101Z,98826.74
2023-05-02T05:37:41.526Z,98827.64
2023-05-02T05:41:00.987Z,98831.37
2023-05-02T05:44:15.794Z,98839.16
2023-05-02T05:47:33.154Z,98842.05
2023-05-02T05:50:50.565Z,98843.31
2023-05-02T05:54:06.996Z,98839.16
2023-05-02T05:57:23.691Z,98837.48
2023-05-02T06:00:42.836Z,98846.44
2023-05-02T06:04:00.113Z,98844.50
2023-05-02T06:07:17.127Z,98847.89
2023-05-02T06:10:34.742Z,98854.18
2023-05-02T06:13:51.420Z,98866.24
2023-05-02T06:17:10.458Z,98877.13
2023-05-02T06:20:29.730Z,98875.11
2023-05-02T06:23:44.083Z,98873.87
2023-05-02T06:27:03.348Z,98876.28
2023-05-02T06:30:24.181Z,98894.27
2023-05-02T06:33:42.236Z,98886.91
2023-05-02T06:37:01.878Z,98879.05
2023-05-02T06:40:20.510Z,98882.17
2023-05-02T06:43:36.798Z,98882.78
2023-05-02T06:46:53.416Z,98889.83
2023-05-02T06:50:09.976Z,98904.73
2023-05-02T06:53:26.571Z,98902.05
2023-05-02T06:56:43.290Z,98903.15
2023-05-02T07:00:00.386Z,98909.78
2023-05-02T07:03:18.288Z,98914.20
2023-05-02T07:06:39.980Z,98924.41
2023-05-02T07:09:56.769Z,98913.59
2023-05-02T07:13:20.544Z,98922.28
2023-05-02T07:16:38.936Z,98926.41
2023-05-02T07:19:56.049Z,98923.42
2023-05-02T07:26:22.088Z,98918.66
2023-05-02T07:29:38.750Z,98931.55
2023-05-02T07:32:55.169Z,98936.23
2023-05-02T07:36:12.118Z,98923.38
2023-05-02T07:39:28.812Z,98917.05
2023-05-02T07:42:45.456Z,98927.78
2023-05-02T07:46:01.884Z,98925.02
2023-05-02T07:49:18.273Z,98925.44
2023-05-02T07:52:34.836Z,98923.27
2023-05-02T07:55:51.219Z,98921.08
2023-05-02T07:59:07.494Z,98923.59
2023-05-02T08:02:25.091Z,98933.52
2023-05-02T08:05:41.991Z,98927.22
2023-05-02T08:08:58.304Z,98937.13
2023-05-02T08:12:14.778Z,98939.24
2023-05-02T08:15:31.328Z,98933.09
2023-05-02T08:18:47.576Z,98932.88
2023-05-02T08:22:07.826Z,98933.25
2023-05-02T08:25:26.102Z,98932.56
2023-05-02T08:28:42.606Z,98938.07
2023-05-02T08:31:58.986Z,98939.73
2023-05-02T08:35:17.239Z,98951.50
2023-05-02T08:38:33.526Z,98935.69
2023-05-02T08:41:53.332Z,98939.91
2023-05-02T08:45:13.973Z,98953.46
2023-05-02T08:48:31.242Z,98940.95
2023-05-02T08:51:49.472Z,98946.47
2023-05-02T08:55:07.108Z,98951.14
2023-05-02T08:58:23.561Z,98958.72
2023-05-02T09:01:41.611Z,98945.41
2023-05-02T09:05:01.650Z,98941.55
2023-05-02T09:08:18.759Z,98938.61
2023-05-02T09:11:35.252Z,98945.30
2023-05-02T09:14:52.648Z,98948.92
2023-05-02T09:18:11.764Z,98948.55
2023-05-02T09:21:30.536Z,98950.19
2023-05-02T09:24:48.773Z,98949.85
2023-05-02T09:28:06.270Z,98951.45
2023-05-02T09:31:49.775Z,98946.39
2023-05-02T09:34:45.489Z,98959.28
2023-05-02T09:38:05.250Z,98953.94
2023-05-02T09:41:23.467Z,98954.47
2023-05-02T09:44:47.829Z,98956.72
2023-05-02T09:48:08.932Z,98964.39
2023-05-02T09:51:30.092Z,98951.83
2023-05-02T09:54:47.557Z,98950.05
2023-05-02T09:58:05.030Z,98950.48
2023-05-02T10:01:27.156Z,98939.03
2023-05-02T10:04:44.850Z,98946.78
2023-05-02T10:08:04.245Z,98948.14
2023-05-02T10:11:22.614Z,98946.17
2023-05-02T10:14:43.969Z,98936.59
2023-05-02T10:18:06.749Z,98941.59
2023-05-02T10:21:29.178Z,98933.97
2023-05-02T10:24:48.369Z,98935.89
2023-05-02T10:28:06.963Z,98926.53
2023-05-02T10:31:24.533Z,98936.23
2023-05-02T10:34:41.694Z,98938.40
2023-05-02T10:38:00.315Z,98945.44
2023-05-02T10:41:20.808Z,98936.91
2023-05-02T10:44:45.373Z,98935.49
2023-05-02T10:48:16.424Z,98929.97
2023-05-02T10:51:40.382Z,98927.79
2023-05-02T10:54:57.245Z,98924.88
2023-05-02T10:58:33.719Z,98923.90
2023-05-02T11:01:49.964Z,98932.91
2023-05-02T11:05:40.447Z,98932.16
2023-05-02T11:09:51.123Z,98928.68
2023-05-02T11:13:28.756Z,98928.23
2023-05-02T11:17:18.427Z,98925.17
2023-05-02T11:20:35.732Z,98919.97
2023-05-02T11:23:55.625Z,98911.83
2023-05-02T11:27:57.829Z,98911.31
2023-05-02T11:31:14.592Z,98908.08
2023-05-02T11:34:33.862Z,98915.39
2023-05-02T11:37:50.308Z,98918.47
2023-05-02T11:41:08.404Z,98922.80
2023-05-02T11:44:24.929Z,98915.22
2023-05-02T11:47:47.327Z,98919.67
2023-05-02T11:51:08.114Z,98920.02
2023-05-02T11:54:30.365Z,98924.80
2023-05-02T11:57:47.921Z,98922.52
2023-05-02T12:01:04.673Z,98928.49
2023-05-02T12:04:22.822Z,98907.04
2023-05-02T12:07:50.170Z,98917.89
2023-05-02T12:11:07.688Z,98925.33
2023-05-02T12:14:24.962Z,98911.00
2023-05-02T12:17:43.514Z,98899.66
2023-05-02T12:20:58.759Z,98899.80
2023-05-02T12:24:15.579Z,98903.70
2023-05-02T12:27:34.178Z,98914.05
2023-05-02T12:30:52.801Z,98935.64
2023-05-02T12:34:15.080Z,98939.17
2023-05-02T12:37:37.654Z,98952.41
2023-05-02T12:41:06.799Z,98958.55
2023-05-02T12:44:23.323Z,98948.30
2023-05-02T12:47:41.242Z,98954.38
2023-05-02T12:50:58.455Z,98954.44
2023-05-02T12:54:33.458Z,98968.80
2023-05-02T12:57:52.523Z,98962.61
2023-05-02T13:01:11.163Z,98958.09
2023-05-02T13:04:27.609Z,98960.30
2023-05-02T13:07:44.004Z,98971.41
2023-05-02T13:11:00.190Z,98968.19
2023-05-02T13:14:16.591Z,98961.31
2023-05-02T13:17:32.961Z,98956.70
2023-05-02T13:20:49.490Z,98936.11
2023-05-02T13:24:06.929Z,98961.79
2023-05-02T13:27:23.227Z,98967.64
2023-05-02T13:30:39.803Z,98973.38
2023-05-02T13:33:58.853Z,98990.63
2023-05-02T13:37:15.247Z,98993.78
2023-05-02T13:40:31.521Z,98981.94
2023-05-02T13:43:47.889Z,98963.10
2023-05-02T13:47:04.901Z,98972.92
2023-05-02T13:50:22.739Z,98981.78
2023-05-02T13:53:39.282Z,98991.02
2023-05-02T13:56:56.654Z,98994.31
2023-05-02T14:00:15.160Z,99021.48
2023-05-02T14:03:30.936Z,99029.12
2023-05-02T14:06:47.751Z,99020.48
2023-05-02T14:10:04.729Z,99003.00
2023-05-02T14:13:21.351Z,99002.64
2023-05-02T14:16:37.711Z,99006.75
2023-05-02T14:19:54.134Z,99002.02
2023-05-02T14:23:10.722Z,99007.77
2023-05-02T14:26:27.200Z,99003.26
2023-05-02T14:29:45.769Z,99006.95
2023-05-02T14:33:02.113Z,99004.67
2023-05-02T14:36:18.493Z,98998.89
2023-05-02T14:39:34.812Z,98997.63
2023-05-02T14:42:51.258Z,99000.89
2023-05-02T14:46:11.812Z,98969.67
2023-05-02T14:49:28.669Z,98955.28
2023-05-02T14:52:48.584Z,98911.41
2023-05-02T14:56:06.484Z,98897.41
2023-05-02T14:59:23.143Z,98918.73
2023-05-02T15:02:42.276Z,98958.12
2023-05-02T15:06:00.803Z,98974.48
2023-05-02T15:09:17.805Z,98992.11
2023-05-02T15:12:34.420Z,98988.45
2023-05-02T15:15:56.519Z,98995.43
2023-05-02T15:19:13.070Z,99001.20
2023-05-02T15:22:30.224Z,99009.20
2023-05-02T15:25:46.666Z,99012.08
2023-05-02T15:29:03.144Z,99024.80
2023-05-02T15:32:19.857Z,99032.14
2023-05-02T15:36:22.947Z,99039.77
2023-05-02T15:39:39.532Z,99044.69
2023-05-02T15:42:55.917Z,99046.99
2023-05-02T15:46:12.738Z,99049.51
2023-05-02T15:49:31.572Z,99058.52
2023-05-02T15:52:48.647Z,99056.28
2023-05-02T15:56:05.101Z,99069.85
2023-05-02T15:59:21.491Z,99077.05
2023-05-02T16:02:38.992Z,99082.82
2023-05-02T16:05:55.720Z,99079.34
2023-05-02T16:09:15.741Z,99077.52
2023-05-02T16:12:33.388Z,99091.61
2023-05-02T16:15:53.585Z,99097.96
2023-05-02T16:19:12.120Z,99108.84
2023-05-02T16:22:29.352Z,99116.21
2023-05-02T16:25:47.138Z,99123.69
2023-05-02T16:29:03.699Z,99134.35
2023-05-02T16:32:20.197Z,99143.66
2023-05-02T16:36:22.686Z,99154.91
2023-05-02T16:39:36.857Z,99161.70
2023-05-02T16:42:54.199Z,99166.94
2023-05-02T16:46:12.524Z,99183.58
2023-05-02T16:49:28.891Z,99183.92
2023-05-02T16:52:45.528Z,99208.56
2023-05-02T16:56:02.503Z,99218.55
2023-05-02T16:59:19.490Z,99222.87
2023-05-02T17:02:35.883Z,99227.11
2023-05-02T17:05:52.676Z,99229.25
2023-05-02T17:09:09.224Z,99230.70
2023-05-02T17:12:26.833Z,99235.03
2023-05-02T17:15:45.757Z,99241.38
2023-05-02T17:19:02.108Z,99245.45
2023-05-02T17:22:19.970Z,99240.77
2023-05-02T17:25:36.228Z,99242.30
2023-05-02T17:28:54.502Z,99243.39
2023-05-02T17:32:15.667Z,99248.22
2023-05-02T17:35:32.654Z,99237.80
2023-05-02T17:38:49.248Z,99256.18
2023-05-02T17:42:05.739Z,99254.89
2023-05-02T17:45:22.770Z,99248.45
2023-05-02T17:48:39.136Z,99249.03
2023-05-02T17:51:55.404Z,99251.30
2023-05-02T17:55:13.637Z,99255.23
2023-05-02T17:58:31.105Z,99251.55
2023-05-02T18:01:50.772Z,99250.55
2023-05-02T18:05:08.861Z,99261.41
2023-05-02T18:08:25.204Z,99271.05
2023-05-02T18:11:41.435Z,99279.05
2023-05-02T18:14:58.077Z,99276.55
2023-05-02T18:18:17.655Z,99286.59
2023-05-02T18:21:35.798Z,99283.28
2023-05-02T18:24:54.323Z,99266.84
2023-05-02T18:28:10.963Z,99259.04
2023-05-02T18:31:28.283Z,99250.77
2023-05-02T18:34:44.954Z,99237.55
2023-05-02T18:38:01.863Z,99239.14
2023-05-02T18:41:19.230Z,99223.72
2023-05-02T18:44:35.571Z,99209.63
2023-05-02T18:47:52.214Z,99196.22
2023-05-02T18:51:08.650Z,99165.15
2023-05-02T18:54:25.297Z,99156.97
2023-05-02T18:57:42.606Z,99188.55
2023-05-02T19:00:59.015Z,99215.73
2023-05-02T19:04:15.312Z,99229.58
2023-05-02T19:07:32.000Z,99253.72
2023-05-02T19:10:48.734Z,99263.71
2023-05-02T19:14:05.233Z,99265.83
2023-05-02T19:17:23.020Z,99267.11
2023-05-02T19:20:39.762Z,99265.91
2023-05-02T19:23:57.488Z,99267.38
2023-05-02T19:27:15.582Z,99267.45
2023-05-02T19:30:32.476Z,99273.89
2023-05-02T19:33:52.190Z,99270.95
2023-05-02T19:37:08.982Z,99280.66
2023-05-02T19:40:25.894Z,99288.83
2023-05-02T19:43:42.947Z,99295.53
2023-05-02T19:46:59.247Z,99301.01
2023-05-02T19:50:17.993Z,99305.52
2023-05-02T19:53:35.337Z,99296.53
2023-05-02T19:56:51.819Z,99301.38
2023-05-02T20:00:08.193Z,99306.95
2023-05-02T20:03:27.326Z,99302.09
2023-05-02T20:06:44.043Z,99308.23
2023-05-02T20:10:00.882Z,99311.08
2023-05-02T20:13:17.653Z,99314.73
2023-05-02T20:16:35.146Z,99314.27
2023-05-02T20:19:51.536Z,99310.80
2023-05-02T20:23:08.340Z,99313.73
2023-05-02T20:26:24.795Z,99314.49
2023-05-02T20:29:41.130Z,99317.44
2023-05-02T20:33:10.453Z,99313.59
2023-05-02T20:36:18.376Z,99305.07
2023-05-02T20:39:34.707Z,99310.58
2023-05-02T20:42:51.138Z,99322.38
2023-05-02T20:46:17.130Z,99329.94
2023-05-02T20:49:33.661Z,99340.47
2023-05-02T20:52:49.933Z,99341.17
2023-05-02T20:56:06.280Z,99342.04
2023-05-02T20:59:24.938Z,99353.58
2023-05-02T21:02:42.000Z,99346.41
2023-05-02T21:06:04.624Z,99358.84
2023-05-02T21:09:21.256Z,99354.16
2023-05-02T21:12:38.042Z,99357.66
2023-05-02T21:15:54.391Z,99366.20
2023-05-02T21:19:15.713Z,99368.72
2023-05-02T21:22:32.611Z,99373.56
2023-05-02T21:25:52.150Z,99371.42
2023-05-02T21:29:09.110Z,99374.55
2023-05-02T21:32:26.850Z,99368.76
2023-05-02T21:35:43.311Z,99376.73
2023-05-02T21:39:00.858Z,99373.56
2023-05-02T21:42:17.243Z,99376.23
2023-05-02T21:45:33.694Z,99379.58
2023-05-02T21:48:50.023Z,99371.89
2023-05-02T21:52:06.302Z,99377.03
2023-05-02T21:55:22.971Z,99369.05
2023-05-02T21:58:39.566Z,99365.58
2023-05-02T22:01:57.709Z,99375.23
2023-05-02T22:05:16.627Z,99377.92
2023-05-02T22:08:32.953Z,99380.98
2023-05-02T22:11:49.309Z,99392.31
2023-05-02T22:15:06.590Z,99404.13
2023-05-02T22:18:24.009Z,99403.00
2023-05-02T22:21:40.442Z,99411.30
2023-05-02T22:24:57.568Z,99418.61
2023-05-02T22:28:15.935Z,99413.78
2023-05-02T22:31:32.754Z,99420.57
2023-05-02T22:34:49.142Z,99426.22
2023-05-02T22:38:07.201Z,99427.06
2023-05-02T22:41:23.504Z,99430.08
2023-05-02T22:44:53.173Z,99426.27
2023-05-02T22:47:57.943Z,99428.78
2023-05-02T22:51:14.632Z,99429.28
2023-05-02T22:54:31.115Z,99430.15
2023-05-02T22:57:48.502Z,99437.08
2023-05-02T23:01:04.864Z,99432.43
2023-05-02T23:04:22.173Z,99430.38
2023-05-02T23:07:38.769Z,99441.67
2023-05-02T23:10:58.771Z,99430.20
2023-05-02T23:14:16.047Z,99431.98
2023-05-02T23:17:33.325Z,99427.02
2023-05-02T23:20:49.716Z,99432.33
2023-05-02T23:24:06.285Z,99433.44
2023-05-02T23:27:22.874Z,99436.10
2023-05-02T23:30:41.692Z,99435.28
2023-05-02T23:33:58.119Z,99434.29
2023-05-02T23:37:15.320Z,99437.09
2023-05-02T23:40:32.571Z,99443.64
2023-05-02T23:43:49.057Z,99440.14
2023-05-02T23:47:05.541Z,99444.82
2023-05-02T23:50:22.323Z,99442.16
2023-05-02T23:53:38.505Z,99441.31
2023-05-02T23:56:54.733Z,99443.16
